Time;durP1;ratioP1;P1;durP2;ratioP2;P2;SDS_P1;SDS_P2;PMS_P1;PMS_P2;Temp;Humidity;BMP_temperature;BMP_pressure;BME280_temperature;BME280_humidity;BME280_pressure;Samples;Min_cycle;Max_cycle;Signal;HPM_P1;HPM_P2
2022/12/21 00:01:53;;;;;;;24.40;15.32;;;;;;;4.54;100.00;101483.53;5088970;28;20038;-70
2022/12/21 00:04:19;;;;;;;21.55;14.30;;;;;;;4.56;100.00;101484.28;5080930;28;20135;-70
2022/12/21 00:06:44;;;;;;;22.55;14.23;;;;;;;4.56;100.00;101473.94;5079542;28;20036;-71
2022/12/21 00:09:13;;;;;;;25.40;13.95;;;;;;;4.56;100.00;101473.94;5085720;28;20040;-70
2022/12/21 00:11:38;;;;;;;23.67;13.80;;;;;;;4.56;100.00;101471.38;5089419;28;20035;-71
2022/12/21 00:14:04;;;;;;;24.15;14.82;;;;;;;4.58;100.00;101469.53;5081348;28;20043;-70
2022/12/21 00:16:33;;;;;;;26.67;15.00;;;;;;;4.58;100.00;101464.38;5088818;28;20034;-70
2022/12/21 00:19:00;;;;;;;22.92;15.00;;;;;;;4.56;100.00;101469.63;5079191;28;20035;-70
2022/12/21 00:21:28;;;;;;;25.42;13.43;;;;;;;4.56;100.00;101461.88;5082091;28;20368;-70
2022/12/21 00:23:58;;;;;;;26.95;14.95;;;;;;;4.58;100.00;101464.38;5088326;28;20059;-70
2022/12/21 00:26:25;;;;;;;25.05;14.40;;;;;;;4.61;100.00;101461.63;5086601;28;20036;-70
2022/12/21 00:28:53;;;;;;;26.77;14.90;;;;;;;4.62;100.00;101463.31;5084789;28;20048;-70
2022/12/21 00:31:28;;;;;;;26.23;15.63;;;;;;;4.61;100.00;101453.88;5082232;28;20055;-70
2022/12/21 00:33:54;;;;;;;24.48;14.07;;;;;;;4.62;100.00;101458.97;5084284;28;20110;-70
2022/12/21 00:36:21;;;;;;;23.75;15.10;;;;;;;4.64;100.00;101457.16;5084826;28;20069;-70
2022/12/21 00:38:47;;;;;;;25.33;15.55;;;;;;;4.67;100.00;101448.41;5082569;28;20063;-71
2022/12/21 00:41:14;;;;;;;26.58;14.73;;;;;;;4.67;100.00;101445.81;5084007;28;20403;-71
2022/12/21 00:43:41;;;;;;;23.33;14.90;;;;;;;4.66;100.00;101447.56;5083195;28;20023;-71
2022/12/21 00:46:13;;;;;;;23.02;14.45;;;;;;;4.64;100.00;101439.06;5087463;28;20032;-71
2022/12/21 00:48:38;;;;;;;24.58;14.75;;;;;;;4.62;100.00;101447.81;5089161;28;20032;-71
2022/12/21 00:51:09;;;;;;;22.15;14.60;;;;;;;4.62;100.00;101435.75;5087464;28;20487;-71
2022/12/21 00:53:35;;;;;;;20.75;13.73;;;;;;;4.63;100.00;101436.56;5078115;28;20027;-71
2022/12/21 00:56:01;;;;;;;25.25;15.02;;;;;;;4.63;100.00;101432.25;5085373;28;20043;-71
2022/12/21 00:58:29;;;;;;;23.80;15.73;;;;;;;4.64;100.00;101430.50;5087980;28;20480;-71
2022/12/21 01:00:56;;;;;;;26.63;15.73;;;;;;;4.65;100.00;101435.56;5085424;28;20032;-71
2022/12/21 01:03:22;;;;;;;30.42;15.93;;;;;;;4.69;100.00;101431.09;5082779;28;20118;-71
2022/12/21 01:05:49;;;;;;;21.08;13.60;;;;;;;4.71;100.00;101437.00;5085359;28;20066;-71
2022/12/21 01:08:16;;;;;;;21.90;13.73;;;;;;;4.70;100.00;101435.34;5083933;28;20028;-71
2022/12/21 01:10:42;;;;;;;27.45;15.32;;;;;;;4.70;100.00;101435.34;5086943;28;20028;-71
2022/12/21 01:13:08;;;;;;;25.00;15.32;;;;;;;4.68;100.00;101431.16;5091263;28;20067;-71
2022/12/21 01:15:33;;;;;;;23.80;15.10;;;;;;;4.68;100.00;101426.00;5085353;28;20056;-71
2022/12/21 01:17:58;;;;;;;28.73;15.85;;;;;;;4.66;100.00;101428.66;5093844;28;20034;-71
2022/12/21 01:20:24;;;;;;;23.52;14.35;;;;;;;4.64;100.00;101422.75;5087587;28;20364;-71
2022/12/21 01:22:49;;;;;;;26.08;14.48;;;;;;;4.62;100.00;101429.75;5080475;28;20039;-71
2022/12/21 01:25:15;;;;;;;23.75;14.50;;;;;;;4.60;100.00;101422.09;5092050;28;20035;-71
2022/12/21 01:27:40;;;;;;;22.17;14.38;;;;;;;4.61;100.00;101425.50;5106540;28;20032;-71
2022/12/21 01:30:07;;;;;;;25.23;15.52;;;;;;;4.60;100.00;101429.00;5092441;28;20032;-71
2022/12/21 01:32:32;;;;;;;24.27;13.35;;;;;;;4.62;100.00;101425.41;5091410;28;20115;-70
2022/12/21 01:34:58;;;;;;;23.52;14.20;;;;;;;4.64;100.00;101427.91;5093997;28;20395;-71
2022/12/21 01:37:24;;;;;;;23.23;14.48;;;;;;;4.65;100.00;101419.25;5091155;28;20028;-70
2022/12/21 01:39:50;;;;;;;23.88;14.25;;;;;;;4.67;100.00;101414.84;5089278;28;20038;-71
2022/12/21 01:42:15;;;;;;;26.15;15.20;;;;;;;4.69;100.00;101420.75;5087585;28;20032;-71
2022/12/21 01:45:04;;;;;;;23.88;14.68;;;;;;;4.66;100.00;101415.75;5084959;28;20036;-71
2022/12/21 01:47:41;;;;;;;25.02;14.50;;;;;;;4.66;100.00;101415.75;5091790;28;20752;-71
2022/12/21 01:50:24;;;;;;;26.73;14.82;;;;;;;4.68;100.00;101411.34;5096594;28;20031;-70
2022/12/21 01:52:50;;;;;;;27.42;15.15;;;;;;;4.72;100.00;101412.00;5091748;28;20036;-71
2022/12/21 01:55:16;;;;;;;30.42;15.40;;;;;;;4.70;100.00;101406.94;5092020;28;20138;-71
2022/12/21 01:57:41;;;;;;;24.52;14.80;;;;;;;4.70;100.00;101412.09;5090333;28;20169;-71
2022/12/21 02:00:10;;;;;;;23.70;13.63;;;;;;;4.70;100.00;101406.94;5086105;28;20095;-71
2022/12/21 02:02:44;;;;;;;21.42;12.70;;;;;;;4.69;100.00;101415.59;5086863;28;20585;-71
2022/12/21 02:05:23;;;;;;;25.98;14.07;;;;;;;4.66;100.00;101405.44;5091611;28;20036;-71
2022/12/21 02:07:50;;;;;;;22.00;13.18;;;;;;;4.65;100.00;101412.34;5094170;28;20027;-71
2022/12/21 02:10:16;;;;;;;19.15;12.90;;;;;;;4.66;100.00;101405.44;5086788;28;20116;-71
2022/12/21 02:12:43;;;;;;;22.98;13.02;;;;;;;4.64;100.00;101408.09;5091311;28;20084;-71
2022/12/21 02:15:09;;;;;;;22.52;14.57;;;;;;;4.61;100.00;101399.69;5091327;28;20466;-71
2022/12/21 02:18:03;;;;;;;24.77;14.25;;;;;;;4.60;100.00;101400.59;5092787;28;24580;-71
2022/12/21 02:21:02;;;;;;;28.15;14.93;;;;;;;4.60;100.00;101396.28;5086885;28;20089;-71
2022/12/21 02:24:06;;;;;;;25.40;14.85;;;;;;;4.60;100.00;101392.84;5085440;28;20085;-70
2022/12/21 02:26:50;;;;;;;25.00;13.40;;;;;;;4.62;100.00;101396.19;5089909;28;20051;-71
2022/12/21 02:29:52;;;;;;;21.73;12.60;;;;;;;4.58;100.00;101392.09;5087524;28;20500;-72
2022/12/21 02:32:42;;;;;;;24.75;13.32;;;;;;;4.58;100.00;101386.94;5091433;28;20046;-71
2022/12/21 02:35:41;;;;;;;18.42;11.13;;;;;;;4.59;100.00;101391.19;5081264;28;20046;-71
2022/12/21 02:38:32;;;;;;;21.33;12.63;;;;;;;4.55;100.00;101371.63;5087783;28;20069;-71
2022/12/21 02:41:18;;;;;;;20.30;12.07;;;;;;;4.57;100.00;101380.13;5093644;28;20092;-71
2022/12/21 02:44:24;;;;;;;19.13;11.65;;;;;;;4.54;100.00;101375.13;5090858;28;20111;-71
2022/12/21 02:47:04;;;;;;;22.95;13.48;;;;;;;4.55;100.00;101367.28;5089846;28;20028;-71
2022/12/21 02:50:05;;;;;;;21.85;12.23;;;;;;;4.56;100.00;101368.13;5092183;28;20419;-71
2022/12/21 02:52:43;;;;;;;20.00;11.90;;;;;;;4.58;100.00;101364.56;5091623;28;20035;-70
2022/12/21 02:55:11;;;;;;;22.05;12.25;;;;;;;4.59;100.00;101357.63;5083735;28;20055;-71
2022/12/21 02:57:42;;;;;;;20.08;11.90;;;;;;;4.60;100.00;101359.31;5088006;28;20076;-71
2022/12/21 03:00:11;;;;;;;20.27;12.18;;;;;;;4.60;100.00;101356.72;5091665;28;20036;-71
2022/12/21 03:06:10;;;;;;;17.35;11.07;;;;;;;4.57;100.00;101344.81;5093694;28;20123;-71
2022/12/21 03:08:50;;;;;;;19.02;11.88;;;;;;;4.56;100.00;101358.63;5095466;28;20708;-71
2022/12/21 03:11:16;;;;;;;19.65;12.38;;;;;;;4.55;100.00;101350.97;5089253;28;20031;-71
2022/12/21 03:13:46;;;;;;;21.73;11.70;;;;;;;4.54;100.00;101347.56;5088551;28;20041;-71
2022/12/21 03:16:50;;;;;;;18.10;11.15;;;;;;;4.56;100.00;101350.06;5087933;28;20116;-71
2022/12/21 03:19:27;;;;;;;18.70;11.35;;;;;;;4.54;100.00;101341.56;5087239;28;20048;-71
2022/12/21 03:21:59;;;;;;;19.70;10.50;;;;;;;4.56;100.00;101342.31;5084675;28;20051;-71
2022/12/21 03:24:36;;;;;;;19.13;11.38;;;;;;;4.50;100.00;101338.31;5084792;28;20028;-71
2022/12/21 03:27:14;;;;;;;18.30;10.15;;;;;;;4.51;100.00;101334.00;5087186;28;20040;-71
2022/12/21 03:29:50;;;;;;;18.45;11.90;;;;;;;4.49;100.00;101333.25;5087400;28;20097;-71
2022/12/21 03:32:25;;;;;;;21.52;11.60;;;;;;;4.46;100.00;101330.84;5089252;28;20028;-70
2022/12/21 03:34:53;;;;;;;18.70;10.95;;;;;;;4.48;100.00;101342.75;5093521;28;20080;-71
2022/12/21 03:37:23;;;;;;;16.30;10.13;;;;;;;4.48;100.00;101340.16;5084278;28;20336;-71
2022/12/21 03:39:55;;;;;;;20.25;11.52;;;;;;;4.47;100.00;101338.50;5087799;28;20032;-71
2022/12/21 03:42:29;;;;;;;18.08;10.55;;;;;;;4.50;100.00;101345.25;5092281;28;20040;-71
2022/12/21 03:45:04;;;;;;;20.35;10.75;;;;;;;4.51;100.00;101336.56;5092810;28;20519;-70
2022/12/21 03:47:37;;;;;;;18.67;10.93;;;;;;;4.50;100.00;101332.34;5085714;28;20037;-71
2022/12/21 03:50:10;;;;;;;18.52;11.80;;;;;;;4.50;100.00;101329.75;5083414;28;20364;-70
2022/12/21 03:52:43;;;;;;;17.17;10.88;;;;;;;4.52;100.00;101335.66;5082142;28;20031;-70
2022/12/21 03:55:14;;;;;;;21.02;11.75;;;;;;;4.55;100.00;101328.59;5087208;28;20446;-71
2022/12/21 03:57:41;;;;;;;19.88;12.15;;;;;;;4.56;100.00;101326.84;5088289;28;20058;-71
2022/12/21 04:00:08;;;;;;;18.50;11.85;;;;;;;4.57;100.00;101326.75;5089080;28;20122;-71
2022/12/21 04:02:45;;;;;;;24.00;12.13;;;;;;;4.56;100.00;101317.34;5085896;28;20027;-70
2022/12/21 04:05:17;;;;;;;18.20;11.23;;;;;;;4.56;100.00;101327.66;5093007;28;20179;-70
2022/12/21 04:07:45;;;;;;;23.42;11.85;;;;;;;4.57;100.00;101323.34;5084431;28;20031;-71
2022/12/21 04:10:14;;;;;;;20.00;11.70;;;;;;;4.58;100.00;101327.59;5085804;28;20399;-71
2022/12/21 04:12:42;;;;;;;21.35;13.25;;;;;;;4.59;100.00;101326.66;5087987;28;20027;-71
2022/12/21 04:15:14;;;;;;;23.75;13.07;;;;;;;4.60;100.00;101328.34;5090531;28;20036;-72
2022/12/21 04:17:41;;;;;;;22.85;13.98;;;;;;;4.62;100.00;101322.16;5083791;28;20036;-71
2022/12/21 04:20:10;;;;;;;21.55;12.98;;;;;;;4.66;100.00;101325.41;5091982;28;20035;-71
2022/12/21 04:28:29;;;;;;;23.80;13.25;;;;;;;4.66;100.00;101313.34;5046322;28;20049;-70
2022/12/21 04:30:56;;;;;;;22.70;13.02;;;;;;;4.66;100.00;101322.84;5045116;28;20045;-71
2022/12/21 04:33:23;;;;;;;24.42;13.60;;;;;;;4.65;100.00;101318.59;5045522;28;20521;-71
2022/12/21 04:38:44;;;;;;;24.17;13.10;;;;;;;4.63;100.00;101320.41;4986334;28;20072;-71
2022/12/21 04:41:10;;;;;;;21.98;12.07;;;;;;;4.62;100.00;101322.16;4987988;28;20531;-71
2022/12/21 04:43:37;;;;;;;21.92;13.68;;;;;;;4.63;100.00;101318.66;4987542;28;20046;-71
2022/12/21 04:46:14;;;;;;;24.33;14.27;;;;;;;4.65;100.00;101313.44;4984565;28;20041;-71
2022/12/21 04:48:40;;;;;;;22.85;13.75;;;;;;;4.66;100.00;101325.41;4985957;28;20046;-71
2022/12/21 04:51:08;;;;;;;20.92;12.50;;;;;;;4.64;100.00;101319.50;4990608;28;20037;-71
2022/12/21 04:53:34;;;;;;;19.40;10.88;;;;;;;4.64;100.00;101316.91;4983414;28;20403;-71
2022/12/21 04:56:00;;;;;;;22.13;12.63;;;;;;;4.63;100.00;101315.25;4986964;28;20137;-71
2022/12/21 04:58:25;;;;;;;21.58;12.60;;;;;;;4.62;100.00;101316.16;4995747;28;20042;-70
2022/12/21 05:00:51;;;;;;;21.02;13.10;;;;;;;4.60;100.00;101310.25;5010351;28;20049;-70
2022/12/21 05:03:19;;;;;;;21.13;12.05;;;;;;;4.60;100.00;101312.84;5026656;28;20050;-71
2022/12/21 05:05:44;;;;;;;21.35;13.80;;;;;;;4.58;100.00;101314.69;5023900;28;20421;-71
2022/12/21 05:08:13;;;;;;;23.90;13.40;;;;;;;4.58;100.00;101319.84;5037911;28;20080;-71
2022/12/21 05:10:38;;;;;;;25.13;14.05;;;;;;;4.57;100.00;101321.59;5046029;28;20400;-71
2022/12/21 05:13:04;;;;;;;21.88;13.60;;;;;;;4.58;100.00;101318.09;5045566;28;20041;-70
2022/12/21 05:15:30;;;;;;;30.75;15.85;;;;;;;4.58;100.00;101318.09;5071948;28;20044;-71
2022/12/21 05:17:56;;;;;;;24.75;15.45;;;;;;;4.59;100.00;101312.00;5084280;28;20109;-71
2022/12/21 05:20:22;;;;;;;26.67;14.00;;;;;;;4.59;100.00;101311.19;5084987;28;20472;-71
2022/12/21 05:22:47;;;;;;;22.52;13.77;;;;;;;4.57;100.00;101307.84;5085085;28;20032;-71
2022/12/21 05:25:13;;;;;;;23.08;14.38;;;;;;;4.56;100.00;101306.19;5088124;28;20036;-71
2022/12/21 05:27:38;;;;;;;23.60;13.50;;;;;;;4.54;100.00;101308.84;5083734;28;20039;-71
2022/12/21 05:30:04;;;;;;;24.40;14.52;;;;;;;4.53;100.00;101311.53;5086029;28;20570;-71
2022/12/21 05:32:30;;;;;;;25.67;14.88;;;;;;;4.51;100.00;101308.19;5083652;28;20032;-71
2022/12/21 05:34:55;;;;;;;26.60;14.98;;;;;;;4.50;100.00;101307.34;5085104;28;20040;-71
2022/12/21 05:37:21;;;;;;;26.83;13.90;;;;;;;4.50;100.00;101307.34;5084266;28;20048;-71
2022/12/21 05:39:46;;;;;;;31.58;16.30;;;;;;;4.50;100.00;101307.34;5085134;28;20032;-70
2022/12/21 05:42:11;;;;;;;33.55;16.92;;;;;;;4.50;100.00;101302.19;5086817;28;20507;-71
2022/12/21 05:44:37;;;;;;;33.35;17.23;;;;;;;4.51;100.00;101305.59;5090262;28;20387;-71
2022/12/21 05:47:02;;;;;;;28.27;14.85;;;;;;;4.52;100.00;101302.13;5081274;28;20032;-71
2022/12/21 05:49:28;;;;;;;28.00;15.75;;;;;;;4.55;100.00;101307.94;5082049;28;20536;-71
2022/12/21 05:51:53;;;;;;;26.27;15.05;;;;;;;4.57;100.00;101313.00;5083207;28;20441;-71
2022/12/21 05:54:19;;;;;;;24.83;14.90;;;;;;;4.57;100.00;101313.00;5087433;28;20035;-71
2022/12/21 05:56:44;;;;;;;28.15;14.48;;;;;;;4.56;100.00;101319.09;5083732;28;20036;-70
2022/12/21 05:59:09;;;;;;;25.70;13.07;;;;;;;4.51;100.00;101310.78;5086641;28;20051;-71
2022/12/21 06:01:35;;;;;;;26.15;13.75;;;;;;;4.47;100.00;101317.00;5082148;28;20032;-71
2022/12/21 06:04:01;;;;;;;22.55;14.40;;;;;;;4.44;100.00;101318.00;5086280;28;20024;-71
2022/12/21 06:06:26;;;;;;;23.70;13.85;;;;;;;4.43;100.00;101307.78;5081378;28;20119;-71
2022/12/21 06:08:52;;;;;;;23.65;13.43;;;;;;;4.40;100.00;101306.19;5086032;28;21320;-71
2022/12/21 06:11:20;;;;;;;24.88;14.85;;;;;;;4.42;100.00;101303.53;5082100;28;20032;-71
2022/12/21 06:13:46;;;;;;;25.52;14.23;;;;;;;4.44;100.00;101307.69;5086250;28;20074;-71
2022/12/21 06:16:16;;;;;;;20.63;12.45;;;;;;;4.47;100.00;101301.53;5088581;28;20126;-71
2022/12/21 06:18:41;;;;;;;22.38;12.82;;;;;;;4.45;100.00;101304.19;5089699;28;20211;-70
2022/12/21 06:21:09;;;;;;;23.75;13.77;;;;;;;4.40;100.00;101305.38;5088916;28;20036;-71
2022/12/21 06:23:34;;;;;;;22.58;13.13;;;;;;;4.37;100.00;101308.13;5090150;28;20032;-70
2022/12/21 06:26:02;;;;;;;22.92;13.88;;;;;;;4.36;100.00;101303.88;5084164;28;20038;-70
2022/12/21 06:28:27;;;;;;;24.10;13.85;;;;;;;4.38;100.00;101302.03;5083292;28;20135;-71
2022/12/21 06:30:53;;;;;;;22.98;13.90;;;;;;;4.41;100.00;101296.72;5089468;28;20554;-71
2022/12/21 06:33:20;;;;;;;24.48;15.25;;;;;;;4.41;100.00;101302.69;5085769;28;20117;-71
2022/12/21 06:35:47;;;;;;;26.20;14.95;;;;;;;4.35;100.00;101303.03;5088435;28;21085;-71
2022/12/21 06:38:13;;;;;;;32.22;16.92;;;;;;;4.32;100.00;101304.03;5088185;28;20448;-71
2022/12/21 06:40:38;;;;;;;27.45;16.08;;;;;;;4.31;100.00;101309.28;5088120;28;20051;-71
2022/12/21 06:43:04;;;;;;;34.72;15.20;;;;;;;4.29;100.00;101299.03;5083265;28;20032;-71
2022/12/21 06:45:29;;;;;;;29.42;16.42;;;;;;;4.28;100.00;101306.88;5086245;28;20058;-71
2022/12/21 06:47:55;;;;;;;30.88;16.17;;;;;;;4.29;100.00;101309.34;5083692;28;20031;-71
2022/12/21 06:50:21;;;;;;;27.88;17.15;;;;;;;4.33;100.00;101310.03;5087646;28;20425;-72
2022/12/21 06:52:47;;;;;;;29.98;16.30;;;;;;;4.36;100.00;101309.84;5085309;28;20032;-71
2022/12/21 06:55:13;;;;;;;25.65;15.88;;;;;;;4.37;100.00;101300.38;5090760;28;20072;-72
2022/12/21 06:57:39;;;;;;;28.80;16.45;;;;;;;4.40;100.00;101305.38;5093360;28;20502;-72
2022/12/21 07:00:05;;;;;;;29.15;16.23;;;;;;;4.44;100.00;101301.69;5088091;28;20031;-72
2022/12/21 07:02:30;;;;;;;27.42;16.20;;;;;;;4.45;100.00;101304.19;5081116;28;20169;-72
2022/12/21 07:04:57;;;;;;;25.08;15.05;;;;;;;4.43;100.00;101293.13;5085481;28;20107;-71
2022/12/21 07:07:23;;;;;;;35.80;16.15;;;;;;;4.45;100.00;101293.88;5085359;28;20155;-70
2022/12/21 07:09:48;;;;;;;28.50;16.98;;;;;;;4.46;100.00;101292.13;5082123;28;20055;-71
2022/12/21 07:12:14;;;;;;;31.27;16.90;;;;;;;4.49;100.00;101284.22;5086685;28;20035;-71
2022/12/21 07:14:39;;;;;;;27.58;15.35;;;;;;;4.51;100.00;101284.97;5085096;28;20036;-71
2022/12/21 07:17:04;;;;;;;32.40;15.75;;;;;;;4.51;100.00;101278.06;5084049;28;20031;-71
2022/12/21 07:19:30;;;;;;;31.50;17.05;;;;;;;4.53;100.00;101281.38;5082463;28;20032;-71
2022/12/21 07:21:55;;;;;;;31.25;18.45;;;;;;;4.56;100.00;101280.38;5085131;28;20080;-71
2022/12/21 07:24:21;;;;;;;35.78;18.30;;;;;;;4.57;100.00;101288.03;5084061;28;20500;-71
2022/12/21 07:26:46;;;;;;;40.67;19.20;;;;;;;4.61;100.00;101283.53;5086084;28;20051;-71
2022/12/21 07:29:12;;;;;;;34.75;19.10;;;;;;;4.64;100.00;101286.78;5082375;28;20089;-71
2022/12/21 07:31:38;;;;;;;39.25;18.95;;;;;;;4.66;100.00;101282.38;5086501;28;20032;-71
2022/12/21 07:34:03;;;;;;;33.50;16.80;;;;;;;4.68;100.00;101279.69;5083504;28;20035;-71
2022/12/21 07:36:29;;;;;;;34.00;17.88;;;;;;;4.69;100.00;101280.53;5081018;28;20442;-71
2022/12/21 07:38:54;;;;;;;30.88;16.50;;;;;;;4.70;100.00;101280.44;5079654;28;20028;-71
2022/12/21 07:41:20;;;;;;;35.80;17.92;;;;;;;4.71;100.00;101284.69;5080254;28;20356;-71
2022/12/21 07:43:46;;;;;;;29.67;16.35;;;;;;;4.73;100.00;101279.41;5076838;28;20491;-71
2022/12/21 07:46:13;;;;;;;33.08;17.48;;;;;;;4.73;100.00;101293.16;5074412;28;20036;-71
2022/12/21 07:48:38;;;;;;;29.95;16.70;;;;;;;4.72;100.00;101286.34;5078590;28;20086;-71
2022/12/21 07:51:04;;;;;;;38.95;17.55;;;;;;;4.70;100.00;101284.78;5086666;28;20063;-71
2022/12/21 07:53:30;;;;;;;35.85;19.02;;;;;;;4.69;100.00;101286.53;5098211;28;20042;-71
2022/12/21 07:56:00;;;;;;;36.40;19.88;;;;;;;4.68;100.00;101292.59;5088939;28;20405;-72
2022/12/21 07:58:25;;;;;;;30.75;18.52;;;;;;;4.71;100.00;101283.84;5086218;28;20029;-71
2022/12/21 08:00:51;;;;;;;33.33;19.27;;;;;;;4.73;100.00;101290.56;5082570;28;20050;-71
2022/12/21 08:03:17;;;;;;;39.17;17.83;;;;;;;4.73;100.00;101280.25;5084680;28;20034;-71
2022/12/21 08:05:43;;;;;;;30.45;18.65;;;;;;;4.74;100.00;101283.66;5087115;28;20036;-70
2022/12/21 08:08:08;;;;;;;30.85;19.25;;;;;;;4.71;100.00;101276.94;5086989;28;20032;-70
2022/12/21 08:10:34;;;;;;;37.13;23.17;;;;;;;4.70;100.00;101283.03;5084220;28;20034;-70
2022/12/21 08:13:00;;;;;;;33.20;23.33;;;;;;;4.69;100.00;101281.34;5088785;28;20028;-70
2022/12/21 08:15:25;;;;;;;37.58;22.10;;;;;;;4.70;100.00;101288.19;5087514;28;20119;-71
2022/12/21 08:17:51;;;;;;;31.05;19.27;;;;;;;4.72;100.00;101278.59;5082154;28;20027;-70
2022/12/21 08:20:18;;;;;;;28.65;16.77;;;;;;;4.73;100.00;101275.06;5085948;28;20051;-70
2022/12/21 08:22:43;;;;;;;33.42;18.40;;;;;;;4.75;100.00;101275.81;5091575;28;20106;-69
2022/12/21 08:25:09;;;;;;;30.05;17.20;;;;;;;4.77;100.00;101279.16;5087663;28;20059;-68
2022/12/21 08:27:34;;;;;;;24.85;15.30;;;;;;;4.79;100.00;101277.31;5085575;28;20051;-68
2022/12/21 08:30:00;;;;;;;31.27;16.15;;;;;;;4.80;100.00;101276.38;5084260;28;20032;-68
2022/12/21 08:32:25;;;;;;;30.13;15.98;;;;;;;4.78;100.00;101275.66;5086399;28;20055;-67
2022/12/21 08:34:51;;;;;;;25.52;15.20;;;;;;;4.80;100.00;101276.38;5083482;28;20035;-68
2022/12/21 08:37:16;;;;;;;32.42;16.23;;;;;;;4.82;100.00;101273.72;5081247;28;20036;-69
2022/12/21 08:39:42;;;;;;;35.85;17.13;;;;;;;4.78;100.00;101278.22;5088058;28;20032;-68
2022/12/21 08:42:07;;;;;;;34.92;16.23;;;;;;;4.79;100.00;101276.47;5088986;28;20036;-68
2022/12/21 08:44:33;;;;;;;30.45;15.52;;;;;;;4.79;100.00;101279.06;5082828;28;20027;-68
2022/12/21 08:46:58;;;;;;;28.75;15.98;;;;;;;4.80;100.00;101272.97;5079395;28;20021;-68
2022/12/21 08:49:24;;;;;;;28.50;15.52;;;;;;;4.82;100.00;101284.06;5081980;28;20372;-68
2022/12/21 08:51:49;;;;;;;31.38;15.90;;;;;;;4.80;100.00;101286.72;5083717;28;20391;-69
2022/12/21 08:54:15;;;;;;;36.53;16.55;;;;;;;4.84;100.00;101277.88;5089883;28;20074;-68
2022/12/21 08:56:40;;;;;;;31.17;15.73;;;;;;;4.86;100.00;101270.88;5093880;28;20047;-71
2022/12/21 08:59:08;;;;;;;33.95;18.15;;;;;;;4.84;100.00;101277.88;5086545;28;21176;-71
2022/12/21 09:01:35;;;;;;;31.48;16.20;;;;;;;4.86;100.00;101268.28;5075753;28;20039;-71
2022/12/21 09:04:01;;;;;;;29.42;16.52;;;;;;;4.89;100.00;101269.88;5081244;28;20058;-71
2022/12/21 09:06:26;;;;;;;32.38;17.35;;;;;;;4.92;100.00;101275.69;5087176;28;20028;-71
2022/12/21 09:08:51;;;;;;;32.20;18.52;;;;;;;4.95;100.00;101278.09;5084700;28;20039;-71
2022/12/21 09:11:19;;;;;;;30.48;18.27;;;;;;;4.96;100.00;101277.19;5084593;28;20039;-71
2022/12/21 09:13:45;;;;;;;36.22;18.27;;;;;;;4.98;100.00;101275.34;5087057;28;20091;-71
2022/12/21 09:16:20;;;;;;;43.65;19.52;;;;;;;5.00;100.00;101270.91;5083572;28;20032;-71
2022/12/21 09:18:46;;;;;;;34.80;18.42;;;;;;;5.02;100.00;101272.59;5081011;28;20028;-71
2022/12/21 09:21:14;;;;;;;33.47;18.13;;;;;;;5.00;100.00;101273.50;5091721;28;20054;-70
2022/12/21 09:23:39;;;;;;;32.42;19.48;;;;;;;5.02;100.00;101272.59;5087278;28;20036;-72
2022/12/21 09:26:06;;;;;;;30.77;17.80;;;;;;;5.02;100.00;101270.00;5081023;28;20071;-70
2022/12/21 09:28:32;;;;;;;34.35;17.52;;;;;;;4.99;100.00;101269.25;5088340;28;20372;-70
2022/12/21 09:31:17;;;;;;;37.72;19.20;;;;;;;4.96;100.00;101269.44;5082764;28;20058;-71
2022/12/21 09:33:43;;;;;;;34.05;17.95;;;;;;;4.98;100.00;101271.94;5084459;28;20024;-72
2022/12/21 09:36:10;;;;;;;35.67;19.08;;;;;;;4.98;100.00;101272.75;5073867;28;20028;-70
2022/12/21 09:38:36;;;;;;;31.13;18.27;;;;;;;4.98;100.00;101266.75;5081513;28;20086;-70
2022/12/21 09:41:16;;;;;;;31.08;18.15;;;;;;;4.96;100.00;101269.44;5085044;28;20135;-70
2022/12/21 09:44:04;;;;;;;34.83;19.23;;;;;;;4.95;100.00;101261.78;5079968;28;20035;-69
2022/12/21 09:46:33;;;;;;;42.33;23.25;;;;;;;4.97;100.00;101255.59;5089236;28;20036;-69
2022/12/21 09:49:05;;;;;;;36.15;20.83;;;;;;;4.98;100.00;101246.94;5092365;28;20070;-69
2022/12/21 09:51:32;;;;;;;36.03;19.98;;;;;;;5.01;100.00;101245.91;5091453;28;20036;-71
2022/12/21 09:54:10;;;;;;;32.13;20.60;;;;;;;5.05;100.00;101252.56;5084649;28;20428;-69
2022/12/21 09:56:39;;;;;;;45.38;23.88;;;;;;;5.10;100.00;101254.88;5085645;28;20463;-69
2022/12/21 09:59:10;;;;;;;44.88;24.25;;;;;;;5.16;100.00;101254.53;5090583;28;20059;-72
2022/12/21 10:02:04;;;;;;;46.33;23.55;;;;;;;5.14;100.00;101246.03;5091525;28;20032;-72
2022/12/21 10:05:08;;;;;;;38.33;22.42;;;;;;;5.11;100.00;101249.63;5087384;28;20479;-70
2022/12/21 10:07:45;;;;;;;38.55;22.67;;;;;;;5.08;100.00;101247.22;5089116;28;20074;-72
2022/12/21 10:10:51;;;;;;;42.28;23.88;;;;;;;5.07;100.00;101237.00;5091768;28;20035;-72
2022/12/21 10:13:44;;;;;;;45.13;23.08;;;;;;;5.05;100.00;101238.81;5077571;28;20036;-72
2022/12/21 10:16:32;;;;;;;39.15;21.50;;;;;;;4.96;100.00;101241.03;5091599;28;20028;-72
2022/12/21 10:19:06;;;;;;;40.10;22.40;;;;;;;4.94;100.00;101235.13;5085192;28;20451;-71
2022/12/21 10:21:43;;;;;;;39.40;21.50;;;;;;;4.93;100.00;101237.78;5089454;28;20038;-71
2022/12/21 10:24:33;;;;;;;51.05;24.10;;;;;;;4.92;100.00;101236.13;5091827;28;20097;-72
2022/12/21 10:27:14;;;;;;;77.50;35.90;;;;;;;4.94;100.00;101234.28;5091110;28;20024;-72
2022/12/21 10:29:44;;;;;;;47.33;26.38;;;;;;;4.94;100.00;101239.44;5087654;28;20109;-72
2022/12/21 10:32:13;;;;;;;53.88;27.40;;;;;;;4.94;100.00;101223.97;5089417;28;20126;-71
2022/12/21 10:34:46;;;;;;;49.05;26.40;;;;;;;4.93;100.00;101220.53;5090287;28;20081;-72
2022/12/21 10:37:19;;;;;;;46.00;25.05;;;;;;;4.90;100.00;101223.31;5089312;28;20032;-71
2022/12/21 10:39:54;;;;;;;42.75;23.80;;;;;;;4.89;100.00;101229.38;5085058;28;20391;-72
2022/12/21 10:42:40;;;;;;;42.05;23.35;;;;;;;4.80;100.00;101227.34;5089630;28;20036;-72
2022/12/21 10:45:10;;;;;;;46.28;25.23;;;;;;;4.75;100.00;101220.78;5089212;28;20066;-72
2022/12/21 10:47:37;;;;;;;41.88;24.25;;;;;;;4.70;100.00;101215.91;5088411;28;20114;-72
2022/12/21 10:50:04;;;;;;;61.60;31.20;;;;;;;4.74;100.00;101216.53;5088315;28;20028;-72
2022/12/21 10:52:33;;;;;;;55.90;26.85;;;;;;;4.77;100.00;101216.34;5090938;28;20073;-72
2022/12/21 10:54:59;;;;;;;51.55;27.17;;;;;;;4.78;100.00;101218.00;5089790;28;20491;-72
2022/12/21 10:57:27;;;;;;;50.95;24.63;;;;;;;4.78;100.00;101210.28;5086888;28;20036;-72
2022/12/21 10:59:52;;;;;;;53.25;26.83;;;;;;;4.81;100.00;101208.34;5086681;28;20028;-71
2022/12/21 11:02:42;;;;;;;52.08;26.90;;;;;;;4.83;100.00;101206.50;5087254;28;20468;-71
2022/12/21 11:05:41;;;;;;;53.38;26.20;;;;;;;4.84;100.00;101203.00;5086256;28;20546;-70
2022/12/21 11:08:13;;;;;;;50.78;25.90;;;;;;;4.83;100.00;101201.34;5053433;28;20055;-71
2022/12/21 11:10:41;;;;;;;53.75;26.08;;;;;;;4.84;100.00;101197.00;5088817;28;20135;-71
2022/12/21 11:13:07;;;;;;;48.92;24.83;;;;;;;4.86;100.00;101196.00;5089923;28;20040;-71
2022/12/21 11:15:33;;;;;;;57.15;26.85;;;;;;;4.89;100.00;101193.25;5087751;28;20137;-71
2022/12/21 11:17:59;;;;;;;52.40;26.70;;;;;;;4.94;100.00;101182.63;5087142;28;20028;-71
2022/12/21 11:20:26;;;;;;;51.90;27.05;;;;;;;4.95;100.00;101182.53;5076730;28;20050;-71
2022/12/21 11:22:55;;;;;;;53.97;27.17;;;;;;;4.93;100.00;101181.81;5075740;28;20082;-71
2022/12/21 11:25:27;;;;;;;55.25;29.58;;;;;;;4.96;100.00;101181.63;5083760;28;20106;-71
2022/12/21 11:28:01;;;;;;;59.85;29.33;;;;;;;4.97;100.00;101175.53;5081345;28;20064;-69
2022/12/21 11:30:31;;;;;;;53.90;27.83;;;;;;;4.95;100.00;101176.56;5076340;28;20040;-68
2022/12/21 11:32:59;;;;;;;58.80;26.08;;;;;;;4.96;100.00;101173.88;5083809;28;20043;-69
2022/12/21 11:35:30;;;;;;;55.28;26.05;;;;;;;4.91;100.00;101162.16;5082839;28;20601;-69